createdAt,value
2019-04-25T00:00:12.981Z,0.00
2019-04-25T00:01:18.484Z,0.00
2019-04-25T00:02:23.999Z,0.00
2019-04-25T00:03:29.507Z,0.00
2019-04-25T00:04:35.015Z,0.00
2019-04-25T00:05:42.158Z,0.00
2019-04-25T00:06:46.744Z,0.00
2019-04-25T00:07:51.557Z,0.00
2019-04-25T00:08:57.072Z,0.00
2019-04-25T00:10:02.581Z,0.00
2019-04-25T00:11:08.092Z,0.00
2019-04-25T00:12:13.597Z,0.00
2019-04-25T00:13:19.109Z,0.00
2019-04-25T00:14:24.639Z,0.00
2019-04-25T00:15:30.138Z,0.00
2019-04-25T00:16:35.648Z,0.00
2019-04-25T00:17:42.312Z,0.00
2019-04-25T00:18:46.669Z,0.00
2019-04-25T00:19:52.838Z,0.00
2019-04-25T00:20:57.699Z,0.00
2019-04-25T00:22:03.201Z,0.00
2019-04-25T00:23:08.715Z,0.00
2019-04-25T00:24:14.230Z,0.00
2019-04-25T00:25:19.730Z,0.00
2019-04-25T00:26:25.243Z,0.00
2019-04-25T00:27:32.004Z,0.00
2019-04-25T00:28:36.275Z,0.00
2019-04-25T00:29:43.849Z,0.00
2019-04-25T00:30:48.053Z,0.00
2019-04-25T00:31:53.268Z,0.00
2019-04-25T00:32:58.324Z,0.00
2019-04-25T00:34:03.828Z,0.00
2019-04-25T00:35:09.334Z,0.00
2019-04-25T00:36:14.850Z,0.00
2019-04-25T00:37:20.402Z,0.00
2019-04-25T00:38:25.877Z,0.00
2019-04-25T00:39:31.946Z,0.00
2019-04-25T00:40:36.906Z,0.00
2019-04-25T00:41:44.362Z,0.00
2019-04-25T00:42:48.263Z,0.00
2019-04-25T00:43:53.427Z,0.00
2019-04-25T00:44:58.938Z,0.00
2019-04-25T00:46:04.461Z,0.00
2019-04-25T00:47:11.607Z,0.00
2019-04-25T00:48:15.482Z,0.00
2019-04-25T00:49:22.045Z,0.00
2019-04-25T00:50:26.493Z,0.00
2019-04-25T00:51:32.006Z,0.00
2019-04-25T00:52:37.518Z,0.00
2019-04-25T00:53:43.738Z,0.00
2019-04-25T00:54:48.538Z,0.00
2019-04-25T00:55:54.053Z,0.00
2019-04-25T00:56:59.569Z,0.00
2019-04-25T00:58:05.075Z,0.00
2019-04-25T00:59:11.854Z,0.00
2019-04-25T01:00:16.108Z,0.00
2019-04-25T01:01:21.866Z,0.00
2019-04-25T01:02:27.126Z,0.00
2019-04-25T01:03:32.626Z,0.00
2019-04-25T01:04:38.140Z,0.00
2019-04-25T01:05:44.422Z,0.00
2019-04-25T01:06:49.678Z,0.00
2019-04-25T01:07:54.685Z,0.00
2019-04-25T01:09:01.534Z,0.00
2019-04-25T01:10:05.695Z,0.00
2019-04-25T01:11:11.514Z,0.00
2019-04-25T01:12:16.718Z,0.00
2019-04-25T01:13:22.377Z,0.00
2019-04-25T01:14:27.748Z,0.00
2019-04-25T01:15:33.256Z,0.00
2019-04-25T01:16:38.765Z,0.00
2019-04-25T01:17:45.343Z,0.00
2019-04-25T01:18:49.803Z,0.00
2019-04-25T01:19:57.943Z,0.00
2019-04-25T01:21:00.813Z,0.00
2019-04-25T01:22:06.336Z,0.00
2019-04-25T01:23:11.830Z,0.00
2019-04-25T01:24:17.342Z,0.00
2019-04-25T01:25:23.415Z,0.00
2019-04-25T01:26:28.366Z,0.00
2019-04-25T01:27:33.885Z,0.00
2019-04-25T01:28:39.396Z,0.00
2019-04-25T01:29:46.224Z,0.00
2019-04-25T01:30:50.415Z,0.00
2019-04-25T01:31:56.384Z,0.00
2019-04-25T01:33:01.432Z,0.00
2019-04-25T01:34:06.943Z,0.00
2019-04-25T01:35:13.962Z,0.00
2019-04-25T01:36:17.967Z,0.00
2019-04-25T01:37:23.970Z,0.00
2019-04-25T01:38:28.995Z,0.00
2019-04-25T01:39:34.500Z,0.00
2019-04-25T01:40:40.012Z,0.00
2019-04-25T01:41:45.535Z,0.00
2019-04-25T01:42:51.558Z,0.00
2019-04-25T01:43:58.350Z,0.00
2019-04-25T01:45:03.954Z,0.00
2019-04-25T01:46:07.575Z,0.00
2019-04-25T01:47:14.066Z,0.00
2019-04-25T01:48:18.597Z,0.00
2019-04-25T01:49:24.101Z,0.00
2019-04-25T01:50:29.623Z,0.00
2019-04-25T01:51:35.128Z,0.00
2019-04-25T01:52:40.644Z,0.00
2019-04-25T01:53:46.152Z,0.00
2019-04-25T01:54:53.126Z,0.00
2019-04-25T01:56:02.701Z,0.00
2019-04-25T01:57:04.162Z,0.00
2019-04-25T01:58:08.192Z,0.00
2019-04-25T01:59:15.168Z,0.00
2019-04-25T02:00:19.216Z,0.00
2019-04-25T02:01:24.728Z,0.00
2019-04-25T02:02:30.248Z,0.00
2019-04-25T02:03:35.745Z,0.00
2019-04-25T02:04:41.267Z,0.00
2019-04-25T02:05:46.770Z,0.00
2019-04-25T02:06:54.349Z,0.00
2019-04-25T02:07:57.792Z,0.00
2019-04-25T02:09:04.214Z,0.00
2019-04-25T02:10:08.810Z,0.00
2019-04-25T02:11:14.325Z,0.00
2019-04-25T02:12:20.303Z,0.00
2019-04-25T02:13:25.341Z,0.00
2019-04-25T02:14:30.858Z,0.00
2019-04-25T02:15:36.366Z,0.00
2019-04-25T02:16:41.884Z,0.00
2019-04-25T02:17:47.391Z,0.00
2019-04-25T02:18:54.912Z,0.00
2019-04-25T02:19:58.410Z,0.00
2019-04-25T02:21:04.494Z,0.00
2019-04-25T02:22:09.433Z,0.00
2019-04-25T02:23:14.942Z,0.00
2019-04-25T02:24:20.453Z,0.00
2019-04-25T02:25:25.967Z,0.00
2019-04-25T02:26:31.474Z,0.00
2019-04-25T02:27:36.989Z,0.00
2019-04-25T02:28:43.729Z,0.00
2019-04-25T02:29:48.014Z,0.00
2019-04-25T02:30:58.028Z,0.00
2019-04-25T02:32:02.873Z,20.00
2019-04-25T02:33:08.794Z,20.00
2019-04-25T02:34:10.063Z,16.00
2019-04-25T02:35:15.571Z,16.00
2019-04-25T02:36:21.076Z,20.00
2019-04-25T02:37:26.591Z,20.00
2019-04-25T02:38:34.038Z,20.00
2019-04-25T02:39:37.672Z,20.00
2019-04-25T02:40:45.396Z,20.00
2019-04-25T02:41:48.637Z,16.00
2019-04-25T02:42:56.630Z,16.00
2019-04-25T02:44:03.773Z,16.00
2019-04-25T02:45:08.421Z,16.00
2019-04-25T02:46:10.675Z,16.00
2019-04-25T02:47:16.191Z,16.00
2019-04-25T02:48:23.989Z,16.00
2019-04-25T02:49:35.414Z,16.00
2019-04-25T02:50:34.374Z,16.00
2019-04-25T02:51:38.236Z,16.00
2019-04-25T02:52:44.361Z,16.00
2019-04-25T02:53:49.255Z,16.00
2019-04-25T02:54:56.925Z,16.00
2019-04-25T02:56:00.279Z,16.00
2019-04-25T02:57:08.052Z,16.00
2019-04-25T02:58:11.302Z,16.00
2019-04-25T02:59:16.810Z,16.00
2019-04-25T03:00:24.641Z,16.00
2019-04-25T03:01:27.837Z,16.00
2019-04-25T03:02:34.393Z,0.00
2019-04-25T03:03:38.849Z,0.00
2019-04-25T03:04:44.726Z,0.00
2019-04-25T03:05:49.901Z,0.00
2019-04-25T03:06:55.708Z,0.00
2019-04-25T03:08:01.721Z,0.00
2019-04-25T03:09:08.131Z,0.00
2019-04-25T03:10:14.603Z,0.00
2019-04-25T03:11:17.437Z,0.00
2019-04-25T03:12:32.436Z,0.00
2019-04-25T03:13:28.457Z,0.00
2019-04-25T03:14:35.140Z,0.00
2019-04-25T03:15:39.482Z,0.00
2019-04-25T03:16:45.114Z,0.00
2019-04-25T03:17:50.504Z,0.00
2019-04-25T03:18:56.012Z,0.00
2019-04-25T03:20:03.975Z,0.00
2019-04-25T03:21:13.487Z,0.00
2019-04-25T03:22:14.902Z,0.00
2019-04-25T03:23:18.050Z,0.00
2019-04-25T03:24:25.010Z,0.00
2019-04-25T03:25:29.080Z,0.00
2019-04-25T03:26:40.357Z,0.00
2019-04-25T03:27:40.099Z,0.00
2019-04-25T03:28:45.613Z,0.00
2019-04-25T03:29:51.118Z,0.00
2019-04-25T03:30:57.292Z,0.00
2019-04-25T03:32:04.081Z,0.00
2019-04-25T03:33:11.885Z,0.00
2019-04-25T03:34:16.943Z,0.00
2019-04-25T03:35:18.691Z,0.00
2019-04-25T03:36:24.200Z,0.00
2019-04-25T03:37:29.705Z,0.00
2019-04-25T03:38:35.217Z,0.00
2019-04-25T03:39:40.721Z,0.00
2019-04-25T03:40:46.232Z,0.00
2019-04-25T03:41:51.743Z,0.00
2019-04-25T03:42:57.258Z,0.00
2019-04-25T03:44:04.535Z,0.00
2019-04-25T03:45:09.176Z,0.00
2019-04-25T03:46:14.234Z,0.00
2019-04-25T03:47:19.296Z,0.00
2019-04-25T03:48:25.240Z,0.00
2019-04-25T03:49:30.325Z,0.00
2019-04-25T03:50:35.833Z,0.00
2019-04-25T03:51:41.345Z,0.00
2019-04-25T03:52:46.857Z,0.00
2019-04-25T03:53:53.554Z,0.00
2019-04-25T03:54:57.878Z,0.00
2019-04-25T03:56:05.838Z,0.00
2019-04-25T03:57:08.903Z,0.00
2019-04-25T03:58:14.702Z,0.00
2019-04-25T03:59:19.919Z,0.00
2019-04-25T04:00:25.434Z,4.00
2019-04-25T04:01:30.941Z,4.00
2019-04-25T04:02:36.466Z,0.00
2019-04-25T04:03:43.853Z,0.00
2019-04-25T04:04:47.477Z,4.00
2019-04-25T04:05:54.035Z,0.00
2019-04-25T04:06:58.494Z,4.00
2019-04-25T04:08:05.191Z,0.00
2019-04-25T04:09:09.814Z,4.00
2019-04-25T04:10:15.524Z,8.00
2019-04-25T04:11:20.550Z,8.00
2019-04-25T04:12:26.057Z,4.00
2019-04-25T04:13:31.570Z,8.00
2019-04-25T04:14:37.078Z,8.00
2019-04-25T04:15:43.390Z,8.00
2019-04-25T04:16:48.099Z,12.00
2019-04-25T04:17:53.724Z,12.00
2019-04-25T04:18:59.124Z,12.00
2019-04-25T04:20:05.585Z,12.00
2019-04-25T04:21:11.092Z,16.00
2019-04-25T04:22:16.265Z,16.00
2019-04-25T04:23:21.181Z,16.00
2019-04-25T04:24:26.683Z,20.00
2019-04-25T04:25:33.599Z,20.00
2019-04-25T04:26:37.702Z,24.00
2019-04-25T04:27:43.777Z,24.00
2019-04-25T04:28:48.720Z,24.00
2019-04-25T04:29:54.376Z,28.00
2019-04-25T04:30:59.744Z,28.00
2019-04-25T04:32:06.841Z,28.00
2019-04-25T04:33:22.955Z,28.00
2019-04-25T04:34:16.987Z,36.00
2019-04-25T04:35:23.370Z,32.00
2019-04-25T04:36:27.303Z,36.00
2019-04-25T04:37:33.281Z,40.00
2019-04-25T04:38:38.331Z,40.00
2019-04-25T04:39:43.835Z,44.00
2019-04-25T04:40:49.346Z,44.00
2019-04-25T04:41:55.466Z,48.00
2019-04-25T04:43:00.374Z,52.00
2019-04-25T04:44:05.884Z,52.00
2019-04-25T04:45:12.382Z,52.00
2019-04-25T04:46:18.572Z,56.00
2019-04-25T04:47:23.580Z,60.00
2019-04-25T04:48:27.925Z,60.00
2019-04-25T04:49:34.100Z,60.00
2019-04-25T04:50:38.946Z,64.00
2019-04-25T04:51:44.485Z,68.00
2019-04-25T04:52:49.971Z,68.00
2019-04-25T04:53:55.478Z,72.00
2019-04-25T04:55:07.770Z,68.00
2019-04-25T04:56:06.515Z,76.00
2019-04-25T04:57:25.728Z,76.00
2019-04-25T04:58:17.688Z,80.00
2019-04-25T04:59:24.696Z,80.00
2019-04-25T05:00:28.552Z,80.00
2019-04-25T05:01:34.062Z,80.00
2019-04-25T05:02:39.573Z,84.00
2019-04-25T05:03:45.082Z,84.00
2019-04-25T05:04:50.599Z,84.00
2019-04-25T05:05:56.111Z,88.00
2019-04-25T05:07:01.616Z,88.00
2019-04-25T05:08:07.124Z,96.00
2019-04-25T05:09:15.167Z,104.00
2019-04-25T05:10:19.057Z,112.00
2019-04-25T05:11:25.415Z,116.00
2019-04-25T05:12:29.172Z,124.00
2019-04-25T05:13:34.690Z,124.00
2019-04-25T05:14:40.196Z,124.00
2019-04-25T05:15:45.712Z,124.00
2019-04-25T05:16:51.244Z,120.00
2019-04-25T05:17:56.732Z,124.00
2019-04-25T05:19:03.700Z,124.00
2019-04-25T05:20:07.750Z,124.00
2019-04-25T05:21:14.849Z,124.00
2019-04-25T05:22:18.773Z,120.00
2019-04-25T05:23:24.915Z,120.00
2019-04-25T05:24:29.804Z,120.00
2019-04-25T05:25:35.311Z,120.00
2019-04-25T05:26:40.819Z,120.00
2019-04-25T05:27:59.567Z,120.00
2019-04-25T05:28:53.301Z,124.00
2019-04-25T05:29:57.353Z,128.00
2019-04-25T05:31:03.415Z,128.00
2019-04-25T05:32:08.379Z,128.00
2019-04-25T05:33:17.605Z,124.00
2019-04-25T05:34:19.698Z,124.00
2019-04-25T05:35:25.411Z,124.00
2019-04-25T05:36:30.429Z,124.00
2019-04-25T05:37:35.937Z,120.00
2019-04-25T05:38:41.452Z,116.00
2019-04-25T05:39:46.961Z,116.00
2019-04-25T05:40:53.904Z,108.00
2019-04-25T05:41:57.982Z,104.00
2019-04-25T05:43:03.495Z,104.00
2019-04-25T05:44:09.002Z,104.00
2019-04-25T05:45:16.053Z,108.00
2019-04-25T05:46:20.040Z,116.00
2019-04-25T05:47:26.111Z,124.00
2019-04-25T05:48:31.052Z,132.00
2019-04-25T05:49:36.561Z,144.00
2019-04-25T05:50:43.648Z,156.00
2019-04-25T05:51:47.582Z,172.00
2019-04-25T05:52:54.147Z,176.00
2019-04-25T05:53:58.615Z,188.00
2019-04-25T05:55:04.122Z,192.00
2019-04-25T05:56:09.630Z,196.00
2019-04-25T05:57:16.515Z,204.00
2019-04-25T05:58:20.656Z,208.00
2019-04-25T05:59:26.924Z,208.00
2019-04-25T06:00:31.682Z,216.00
2019-04-25T06:01:37.189Z,216.00
2019-04-25T06:02:44.281Z,220.00
2019-04-25T06:03:48.222Z,216.00
2019-04-25T06:04:53.725Z,216.00
2019-04-25T06:05:59.239Z,208.00
2019-04-25T06:07:05.685Z,200.00
2019-04-25T06:08:10.262Z,188.00
2019-04-25T06:09:15.780Z,184.00
2019-04-25T06:10:21.659Z,176.00
2019-04-25T06:11:26.800Z,164.00
2019-04-25T06:12:33.559Z,156.00
2019-04-25T06:13:37.825Z,148.00
2019-04-25T06:14:43.451Z,148.00
2019-04-25T06:15:48.849Z,140.00
2019-04-25T06:16:54.374Z,148.00
2019-04-25T06:17:59.867Z,144.00
2019-04-25T06:19:13.267Z,140.00
2019-04-25T06:20:10.895Z,160.00
2019-04-25T06:21:16.406Z,160.00
2019-04-25T06:22:24.358Z,172.00
2019-04-25T06:23:27.442Z,180.00
2019-04-25T06:24:34.322Z,180.00
2019-04-25T06:25:39.732Z,180.00
2019-04-25T06:26:43.967Z,184.00
2019-04-25T06:27:56.378Z,200.00
2019-04-25T06:28:59.596Z,208.00
2019-04-25T06:30:01.020Z,220.00
2019-04-25T06:31:10.152Z,232.00
2019-04-25T06:32:11.533Z,252.00
2019-04-25T06:33:17.080Z,260.00
2019-04-25T06:34:24.889Z,260.00
2019-04-25T06:35:28.074Z,260.00
2019-04-25T06:36:35.075Z,268.00
2019-04-25T06:37:39.093Z,260.00
2019-04-25T06:38:44.604Z,248.00
2019-04-25T06:39:50.116Z,244.00
2019-04-25T06:40:55.633Z,248.00
2019-04-25T06:42:01.136Z,264.00
2019-04-25T06:43:06.653Z,272.00
2019-04-25T06:44:13.685Z,268.00
2019-04-25T06:45:17.682Z,284.00
2019-04-25T06:46:24.826Z,288.00
2019-04-25T06:47:29.536Z,292.00
2019-04-25T06:48:35.162Z,300.00
2019-04-25T06:49:39.727Z,300.00
2019-04-25T06:50:45.236Z,300.00
2019-04-25T06:51:50.748Z,280.00
2019-04-25T06:52:56.266Z,288.00
2019-04-25T06:54:03.331Z,288.00
2019-04-25T06:55:07.298Z,284.00
2019-04-25T06:56:13.707Z,280.00
2019-04-25T06:57:18.337Z,292.00
2019-04-25T06:58:26.922Z,296.00
2019-04-25T06:59:30.104Z,296.00
2019-04-25T07:00:40.918Z,312.00
2019-04-25T07:01:40.361Z,336.00
2019-04-25T07:02:45.883Z,336.00
2019-04-25T07:03:51.391Z,340.00
2019-04-25T07:04:56.905Z,344.00
2019-04-25T07:06:03.302Z,348.00
2019-04-25T07:07:11.984Z,344.00
2019-04-25T07:08:13.439Z,352.00
2019-04-25T07:09:18.955Z,344.00
2019-04-25T07:10:26.121Z,352.00
2019-04-25T07:11:30.465Z,360.00
2019-04-25T07:12:36.040Z,360.00
2019-04-25T07:13:40.996Z,360.00
2019-04-25T07:14:46.518Z,352.00
2019-04-25T07:15:53.405Z,356.00
2019-04-25T07:16:57.543Z,352.00
2019-04-25T07:18:03.784Z,364.00
2019-04-25T07:19:08.568Z,372.00
2019-04-25T07:20:14.082Z,380.00
2019-04-25T07:21:19.588Z,384.00
2019-04-25T07:22:25.943Z,372.00
2019-04-25T07:23:30.613Z,380.00
2019-04-25T07:24:36.130Z,380.00
2019-04-25T07:25:41.642Z,372.00
2019-04-25T07:26:47.155Z,380.00
2019-04-25T07:27:53.425Z,368.00
2019-04-25T07:28:58.183Z,208.00
2019-04-25T07:30:04.110Z,108.00
2019-04-25T07:31:09.207Z,320.00
2019-04-25T07:32:14.722Z,308.00
2019-04-25T07:33:20.234Z,336.00
2019-04-25T07:34:26.544Z,352.00
2019-04-25T07:35:31.261Z,384.00
2019-04-25T07:36:37.344Z,408.00
2019-04-25T07:37:44.088Z,412.00
2019-04-25T07:38:47.799Z,412.00
2019-04-25T07:39:54.207Z,416.00
2019-04-25T07:40:58.825Z,432.00
2019-04-25T07:42:04.340Z,460.00
2019-04-25T07:43:09.851Z,472.00
2019-04-25T07:44:15.384Z,480.00
2019-04-25T07:45:20.876Z,488.00
2019-04-25T07:46:26.414Z,500.00
2019-04-25T07:47:31.931Z,464.00
2019-04-25T07:48:38.170Z,456.00
2019-04-25T07:49:43.368Z,468.00
2019-04-25T07:50:48.440Z,172.00
2019-04-25T07:51:53.954Z,144.00
2019-04-25T07:52:59.465Z,348.00
2019-04-25T07:54:04.986Z,392.00
2019-04-25T07:55:10.493Z,384.00
2019-04-25T07:56:16.016Z,400.00
2019-04-25T07:57:21.523Z,412.00
2019-04-25T07:58:38.198Z,444.00
2019-04-25T07:59:34.974Z,436.00
2019-04-25T08:00:38.074Z,472.00
2019-04-25T08:01:43.760Z,516.00
2019-04-25T08:02:49.089Z,516.00
2019-04-25T08:03:54.617Z,500.00
2019-04-25T08:05:00.110Z,568.00
2019-04-25T08:06:05.622Z,564.00
2019-04-25T08:07:11.148Z,540.00
2019-04-25T08:08:16.655Z,516.00
2019-04-25T08:09:22.224Z,480.00
2019-04-25T08:10:27.969Z,468.00
2019-04-25T08:11:34.126Z,424.00
2019-04-25T08:12:39.430Z,436.00
2019-04-25T08:13:44.218Z,428.00
2019-04-25T08:14:49.738Z,360.00
2019-04-25T08:15:55.246Z,388.00
2019-04-25T08:17:00.763Z,464.00
2019-04-25T08:18:06.276Z,460.00
2019-04-25T08:19:13.559Z,400.00
2019-04-25T08:20:17.304Z,368.00
2019-04-25T08:21:23.891Z,360.00
2019-04-25T08:22:28.326Z,372.00
2019-04-25T08:23:36.697Z,368.00
2019-04-25T08:24:39.360Z,392.00
2019-04-25T08:25:44.892Z,420.00
2019-04-25T08:26:50.394Z,440.00
2019-04-25T08:27:55.907Z,460.00
2019-04-25T08:29:01.421Z,492.00
2019-04-25T08:30:06.928Z,532.00
2019-04-25T08:31:13.546Z,540.00
2019-04-25T08:32:17.952Z,588.00
2019-04-25T08:33:23.792Z,536.00
2019-04-25T08:34:28.990Z,480.00
2019-04-25T08:35:35.486Z,428.00
2019-04-25T08:36:40.101Z,440.00
2019-04-25T08:37:45.527Z,432.00
2019-04-25T08:38:51.037Z,420.00
2019-04-25T08:39:56.558Z,424.00
2019-04-25T08:41:02.069Z,440.00
2019-04-25T08:42:07.573Z,408.00
2019-04-25T08:43:14.665Z,376.00
2019-04-25T08:44:18.607Z,364.00
2019-04-25T08:45:24.562Z,424.00
2019-04-25T08:46:29.632Z,472.00
2019-04-25T08:47:36.167Z,528.00
2019-04-25T08:48:40.667Z,560.00
2019-04-25T08:49:46.195Z,548.00
2019-04-25T08:50:51.689Z,516.00
2019-04-25T08:51:57.197Z,512.00
2019-04-25T08:53:03.974Z,548.00
2019-04-25T08:54:08.235Z,552.00
2019-04-25T08:55:14.243Z,584.00
2019-04-25T08:56:19.271Z,600.00
2019-04-25T08:57:25.607Z,500.00
2019-04-25T08:58:30.288Z,428.00
2019-04-25T08:59:41.925Z,436.00
2019-04-25T09:00:41.317Z,400.00
2019-04-25T09:01:46.834Z,352.00
2019-04-25T09:02:52.350Z,308.00
2019-04-25T09:03:57.855Z,312.00
2019-04-25T09:05:04.097Z,324.00
2019-04-25T09:06:08.888Z,344.00
2019-04-25T09:07:14.396Z,408.00
2019-04-25T09:08:19.914Z,444.00
2019-04-25T09:09:25.422Z,468.00
2019-04-25T09:10:30.932Z,444.00
2019-04-25T09:11:38.050Z,444.00
2019-04-25T09:12:41.966Z,408.00
2019-04-25T09:13:47.498Z,348.00
2019-04-25T09:14:54.186Z,412.00
2019-04-25T09:15:58.511Z,564.00
2019-04-25T09:17:04.027Z,676.00
2019-04-25T09:18:09.541Z,524.00
2019-04-25T09:19:15.594Z,480.00
2019-04-25T09:20:20.565Z,472.00
2019-04-25T09:21:26.074Z,472.00
2019-04-25T09:22:31.603Z,568.00
2019-04-25T09:23:37.915Z,532.00
2019-04-25T09:24:44.125Z,504.00
2019-04-25T09:25:48.140Z,472.00
2019-04-25T09:26:54.054Z,400.00
2019-04-25T09:27:59.161Z,400.00
2019-04-25T09:29:16.315Z,428.00
2019-04-25T09:30:10.197Z,448.00
2019-04-25T09:31:15.701Z,424.00
2019-04-25T09:32:21.221Z,420.00
2019-04-25T09:33:26.726Z,428.00
2019-04-25T09:34:33.557Z,480.00
2019-04-25T09:35:37.767Z,528.00
2019-04-25T09:36:43.963Z,592.00
2019-04-25T09:37:48.789Z,600.00
2019-04-25T09:38:54.305Z,680.00
2019-04-25T09:39:59.832Z,768.00
2019-04-25T09:41:05.330Z,896.00
2019-04-25T09:42:10.842Z,648.00
2019-04-25T09:43:16.368Z,616.00
2019-04-25T09:44:21.878Z,680.00
2019-04-25T09:45:27.391Z,720.00
2019-04-25T09:46:34.201Z,696.00
2019-04-25T09:47:39.216Z,856.00
2019-04-25T09:48:44.587Z,912.00
2019-04-25T09:49:49.451Z,888.00
2019-04-25T09:50:54.972Z,872.00
2019-04-25T09:52:00.472Z,800.00
2019-04-25T09:53:05.994Z,768.00
2019-04-25T09:54:11.506Z,768.00
2019-04-25T09:55:17.015Z,712.00
2019-04-25T09:56:23.909Z,772.00
2019-04-25T09:57:28.052Z,848.00
2019-04-25T09:58:33.867Z,768.00
2019-04-25T09:59:39.378Z,788.00
2019-04-25T10:00:45.073Z,744.00
2019-04-25T10:01:50.110Z,688.00
2019-04-25T10:02:55.625Z,704.00
2019-04-25T10:04:01.143Z,772.00
2019-04-25T10:05:06.656Z,772.00
2019-04-25T10:06:13.351Z,716.00
2019-04-25T10:07:17.687Z,636.00
2019-04-25T10:08:24.239Z,548.00
2019-04-25T10:09:28.727Z,428.00
2019-04-25T10:10:34.247Z,416.00
2019-04-25T10:11:40.005Z,452.00
2019-04-25T10:12:45.363Z,524.00
2019-04-25T10:13:50.779Z,668.00
2019-04-25T10:14:56.290Z,816.00
2019-04-25T10:16:01.807Z,884.00
2019-04-25T10:17:07.329Z,872.00
2019-04-25T10:18:14.191Z,784.00
2019-04-25T10:19:18.350Z,848.00
2019-04-25T10:20:23.880Z,972.00
2019-04-25T10:21:29.387Z,1100.00
2019-04-25T10:22:34.908Z,1060.00
2019-04-25T10:23:40.415Z,1144.00
2019-04-25T10:24:58.396Z,1156.00
2019-04-25T10:25:51.447Z,1004.00
2019-04-25T10:26:56.964Z,680.00
2019-04-25T10:28:04.282Z,616.00
2019-04-25T10:29:07.991Z,588.00
2019-04-25T10:30:17.858Z,584.00
2019-04-25T10:31:19.020Z,576.00
2019-04-25T10:32:24.535Z,484.00
2019-04-25T10:33:30.051Z,452.00
2019-04-25T10:34:35.578Z,500.00
2019-04-25T10:35:50.819Z,496.00
2019-04-25T10:36:46.837Z,516.00
2019-04-25T10:37:53.748Z,576.00
2019-04-25T10:39:07.509Z,680.00
2019-04-25T10:40:04.342Z,740.00
2019-04-25T10:41:08.674Z,688.00
2019-04-25T10:42:14.178Z,616.00
2019-04-25T10:43:21.648Z,696.00
2019-04-25T10:44:25.214Z,776.00
2019-04-25T10:45:30.726Z,852.00
2019-04-25T10:46:36.244Z,968.00
2019-04-25T10:47:41.760Z,908.00
2019-04-25T10:48:48.037Z,796.00
2019-04-25T10:49:53.693Z,852.00
2019-04-25T10:50:58.310Z,848.00
2019-04-25T10:52:03.831Z,864.00
2019-04-25T10:53:09.342Z,908.00
2019-04-25T10:54:14.860Z,804.00
2019-04-25T10:55:20.382Z,1012.00
2019-04-25T10:56:25.891Z,820.00
2019-04-25T10:57:31.403Z,748.00
2019-04-25T10:58:36.920Z,636.00
2019-04-25T10:59:54.290Z,492.00
2019-04-25T11:00:48.668Z,612.00
2019-04-25T11:01:55.048Z,548.00
2019-04-25T11:02:58.985Z,528.00
2019-04-25T11:04:04.827Z,548.00
2019-04-25T11:05:10.041Z,572.00
2019-04-25T11:06:15.543Z,456.00
2019-04-25T11:07:21.070Z,540.00
2019-04-25T11:08:26.645Z,552.00
2019-04-25T11:09:32.081Z,544.00
2019-04-25T11:10:37.612Z,520.00
2019-04-25T11:11:43.151Z,516.00
2019-04-25T11:12:49.298Z,524.00
2019-04-25T11:13:55.377Z,528.00
2019-04-25T11:14:59.674Z,548.00
2019-04-25T11:16:05.198Z,552.00
2019-04-25T11:17:10.715Z,548.00
2019-04-25T11:18:16.232Z,572.00
2019-04-25T11:19:21.737Z,672.00
2019-04-25T11:20:27.253Z,740.00
2019-04-25T11:21:33.333Z,680.00
2019-04-25T11:22:38.319Z,628.00
2019-04-25T11:23:44.978Z,572.00
2019-04-25T11:24:49.323Z,648.00
2019-04-25T11:25:54.873Z,720.00
2019-04-25T11:27:00.348Z,868.00
2019-04-25T11:28:05.905Z,1068.00
2019-04-25T11:29:11.388Z,1236.00
2019-04-25T11:30:16.911Z,1228.00
2019-04-25T11:31:23.508Z,1040.00
2019-04-25T11:32:27.951Z,884.00
2019-04-25T11:33:33.529Z,752.00
2019-04-25T11:34:38.974Z,788.00
2019-04-25T11:35:47.504Z,856.00
2019-04-25T11:36:50.747Z,676.00
2019-04-25T11:37:55.525Z,420.00
2019-04-25T11:39:01.052Z,452.00
2019-04-25T11:40:06.566Z,560.00
2019-04-25T11:41:13.998Z,504.00
2019-04-25T11:42:17.590Z,420.00
2019-04-25T11:43:23.106Z,392.00
2019-04-25T11:44:28.627Z,392.00
2019-04-25T11:45:34.143Z,380.00
2019-04-25T11:46:39.657Z,404.00
2019-04-25T11:47:46.957Z,448.00
2019-04-25T11:48:50.693Z,452.00
2019-04-25T11:49:56.214Z,408.00
2019-04-25T11:51:01.719Z,380.00
2019-04-25T11:52:07.263Z,504.00
2019-04-25T11:53:12.779Z,520.00
2019-04-25T11:54:18.290Z,684.00
2019-04-25T11:55:23.978Z,880.00
2019-04-25T11:56:29.319Z,968.00
2019-04-25T11:57:34.846Z,896.00
2019-04-25T11:58:40.368Z,560.00
2019-04-25T11:59:48.872Z,396.00
2019-04-25T12:00:51.382Z,464.00
2019-04-25T12:01:57.385Z,384.00
2019-04-25T12:03:03.670Z,332.00
2019-04-25T12:04:07.936Z,284.00
2019-04-25T12:05:14.919Z,280.00
2019-04-25T12:06:18.967Z,256.00
2019-04-25T12:07:24.489Z,332.00
2019-04-25T12:08:30.000Z,788.00
2019-04-25T12:09:35.522Z,1360.00
2019-04-25T12:10:41.034Z,1460.00
2019-04-25T12:11:47.153Z,1256.00
2019-04-25T12:12:53.503Z,1032.00
2019-04-25T12:13:57.593Z,1000.00
2019-04-25T12:15:04.446Z,972.00
2019-04-25T12:16:08.616Z,1244.00
2019-04-25T12:17:14.132Z,1472.00
2019-04-25T12:18:19.651Z,1512.00
2019-04-25T12:19:35.019Z,1456.00
2019-04-25T12:20:30.685Z,1340.00
2019-04-25T12:21:36.199Z,1512.00
2019-04-25T12:22:43.541Z,1764.00
2019-04-25T12:23:47.789Z,1432.00
2019-04-25T12:24:54.364Z,1384.00
2019-04-25T12:25:58.269Z,1336.00
2019-04-25T12:27:04.314Z,1084.00
2019-04-25T12:28:09.307Z,1260.00
2019-04-25T12:29:14.817Z,964.00
2019-04-25T12:30:20.336Z,1096.00
2019-04-25T12:31:25.858Z,908.00
2019-04-25T12:32:31.374Z,680.00
2019-04-25T12:33:36.919Z,828.00
2019-04-25T12:34:42.406Z,928.00
2019-04-25T12:35:47.991Z,1512.00
2019-04-25T12:36:54.449Z,1904.00
2019-04-25T12:37:58.966Z,1640.00
2019-04-25T12:39:04.477Z,1728.00
2019-04-25T12:40:10.012Z,1652.00
2019-04-25T12:41:15.516Z,1484.00
2019-04-25T12:42:21.030Z,172.00
2019-04-25T12:43:26.551Z,932.00
2019-04-25T12:44:32.074Z,752.00
2019-04-25T12:45:37.607Z,876.00
2019-04-25T12:46:43.614Z,1092.00
2019-04-25T12:47:48.613Z,1128.00
2019-04-25T12:48:54.140Z,1080.00
2019-04-25T12:49:59.649Z,1200.00
2019-04-25T12:51:05.169Z,1428.00
2019-04-25T12:52:10.695Z,1688.00
2019-04-25T12:53:16.206Z,1892.00
2019-04-25T12:54:21.730Z,1904.00
2019-04-25T12:55:27.252Z,2116.00
2019-04-25T12:56:34.106Z,1908.00
2019-04-25T12:57:38.273Z,1840.00
2019-04-25T12:58:43.794Z,1672.00
2019-04-25T12:59:49.310Z,1560.00
2019-04-25T13:00:58.479Z,1712.00
2019-04-25T13:02:00.360Z,1664.00
2019-04-25T13:03:06.965Z,1560.00
2019-04-25T13:04:11.391Z,1472.00
2019-04-25T13:05:16.916Z,1348.00
2019-04-25T13:06:23.850Z,1416.00
2019-04-25T13:07:27.953Z,1296.00
2019-04-25T13:08:34.090Z,1300.00
2019-04-25T13:09:38.988Z,1416.00
2019-04-25T13:10:44.691Z,1300.00
2019-04-25T13:11:50.021Z,1008.00
2019-04-25T13:12:55.562Z,816.00
2019-04-25T13:14:01.056Z,684.00
2019-04-25T13:15:06.567Z,592.00
2019-04-25T13:16:13.172Z,620.00
2019-04-25T13:17:17.601Z,764.00
2019-04-25T13:18:23.133Z,1000.00
2019-04-25T13:19:28.637Z,1452.00
2019-04-25T13:20:34.162Z,1512.00
2019-04-25T13:21:39.692Z,1292.00
2019-04-25T13:22:45.197Z,1760.00
2019-04-25T13:23:50.722Z,1376.00
2019-04-25T13:24:56.339Z,1292.00
2019-04-25T13:26:01.750Z,1472.00
2019-04-25T13:27:07.878Z,1380.00
2019-04-25T13:28:14.339Z,1332.00
2019-04-25T13:29:18.302Z,1192.00
2019-04-25T13:30:24.203Z,1056.00
2019-04-25T13:31:29.353Z,996.00
2019-04-25T13:32:34.862Z,884.00
2019-04-25T13:33:40.386Z,880.00
2019-04-25T13:34:45.901Z,868.00
2019-04-25T13:35:51.426Z,872.00
2019-04-25T13:36:58.067Z,816.00
2019-04-25T13:38:02.454Z,952.00
2019-04-25T13:39:07.965Z,1228.00
2019-04-25T13:40:16.222Z,1196.00
2019-04-25T13:41:19.009Z,1196.00
2019-04-25T13:42:24.536Z,984.00
2019-04-25T13:43:30.051Z,1060.00
2019-04-25T13:44:35.576Z,1244.00
2019-04-25T13:45:41.084Z,1500.00
2019-04-25T13:46:46.603Z,1172.00
2019-04-25T13:47:52.113Z,976.00
2019-04-25T13:48:57.636Z,680.00
2019-04-25T13:50:03.146Z,660.00
2019-04-25T13:51:08.679Z,636.00